sensor_id;sensor_type;location;lat;lon;timestamp;temperature;humidity
21318;DHT22;10818;50.830;6.524;2023-04-06T00:03:27;2.40;99.90
21318;DHT22;10818;50.830;6.524;2023-04-06T00:08:27;2.30;99.90
21318;DHT22;10818;50.830;6.524;2023-04-06T00:13:28;2.40;99.90
21318;DHT22;10818;50.830;6.524;2023-04-06T00:18:29;2.50;99.90
21318;DHT22;10818;50.830;6.524;2023-04-06T00:23:29;2.60;99.90
21318;DHT22;10818;50.830;6.524;2023-04-06T00:28:30;2.60;99.90
21318;DHT22;10818;50.830;6.524;2023-04-06T00:33:30;2.60;99.90
21318;DHT22;10818;50.830;6.524;2023-04-06T00:38:31;2.60;99.90
21318;DHT22;10818;50.830;6.524;2023-04-06T00:43:31;2.60;99.90
21318;DHT22;10818;50.830;6.524;2023-04-06T00:48:32;2.50;99.90
21318;DHT22;10818;50.830;6.524;2023-04-06T00:53:33;2.40;99.90
21318;DHT22;10818;50.830;6.524;2023-04-06T00:58:33;2.10;99.90
21318;DHT22;10818;50.830;6.524;2023-04-06T01:03:34;2.10;99.90
21318;DHT22;10818;50.830;6.524;2023-04-06T01:08:34;1.90;99.90
21318;DHT22;10818;50.830;6.524;2023-04-06T01:13:35;1.80;99.90
21318;DHT22;10818;50.830;6.524;2023-04-06T01:18:35;2.00;99.90
21318;DHT22;10818;50.830;6.524;2023-04-06T01:23:37;2.00;99.90
21318;DHT22;10818;50.830;6.524;2023-04-06T01:28:38;2.00;99.90
21318;DHT22;10818;50.830;6.524;2023-04-06T01:33:38;2.00;99.90
21318;DHT22;10818;50.830;6.524;2023-04-06T01:38:39;1.90;99.90
21318;DHT22;10818;50.830;6.524;2023-04-06T01:43:39;1.80;99.90
21318;DHT22;10818;50.830;6.524;2023-04-06T01:48:40;1.80;99.90
21318;DHT22;10818;50.830;6.524;2023-04-06T01:53:40;1.90;99.90
21318;DHT22;10818;50.830;6.524;2023-04-06T01:58:41;1.70;99.90
21318;DHT22;10818;50.830;6.524;2023-04-06T02:03:41;1.60;99.90
21318;DHT22;10818;50.830;6.524;2023-04-06T02:08:42;1.50;99.90
21318;DHT22;10818;50.830;6.524;2023-04-06T02:13:42;1.70;99.90
21318;DHT22;10818;50.830;6.524;2023-04-06T02:18:42;1.40;99.90
21318;DHT22;10818;50.830;6.524;2023-04-06T02:23:43;1.50;99.90
21318;DHT22;10818;50.830;6.524;2023-04-06T02:28:43;1.30;99.90
21318;DHT22;10818;50.830;6.524;2023-04-06T02:33:44;1.40;99.90
21318;DHT22;10818;50.830;6.524;2023-04-06T02:38:44;1.30;99.90
21318;DHT22;10818;50.830;6.524;2023-04-06T02:43:45;1.20;99.90
21318;DHT22;10818;50.830;6.524;2023-04-06T02:48:45;1.20;99.90
21318;DHT22;10818;50.830;6.524;2023-04-06T02:53:46;1.20;99.90
21318;DHT22;10818;50.830;6.524;2023-04-06T02:58:46;1.20;99.90
21318;DHT22;10818;50.830;6.524;2023-04-06T03:03:47;1.30;99.90
21318;DHT22;10818;50.830;6.524;2023-04-06T03:08:47;1.20;99.90
21318;DHT22;10818;50.830;6.524;2023-04-06T03:13:48;1.10;99.90
21318;DHT22;10818;50.830;6.524;2023-04-06T03:18:48;1.20;99.90
21318;DHT22;10818;50.830;6.524;2023-04-06T03:23:49;1.10;99.90
21318;DHT22;10818;50.830;6.524;2023-04-06T03:28:52;1.10;99.90
21318;DHT22;10818;50.830;6.524;2023-04-06T03:33:52;1.10;99.90
21318;DHT22;10818;50.830;6.524;2023-04-06T03:38:53;1.00;99.90
21318;DHT22;10818;50.830;6.524;2023-04-06T03:43:56;1.00;99.90
21318;DHT22;10818;50.830;6.524;2023-04-06T03:48:57;0.80;99.90
21318;DHT22;10818;50.830;6.524;2023-04-06T03:53:57;0.90;99.90
21318;DHT22;10818;50.830;6.524;2023-04-06T03:58:58;0.80;99.90
21318;DHT22;10818;50.830;6.524;2023-04-06T04:03:58;0.90;99.90
21318;DHT22;10818;50.830;6.524;2023-04-06T04:08:58;0.80;99.90
21318;DHT22;10818;50.830;6.524;2023-04-06T04:13:59;0.70;99.90
21318;DHT22;10818;50.830;6.524;2023-04-06T04:19:00;0.70;99.90
21318;DHT22;10818;50.830;6.524;2023-04-06T04:24:00;0.80;99.90
21318;DHT22;10818;50.830;6.524;2023-04-06T04:29:01;0.80;99.90
21318;DHT22;10818;50.830;6.524;2023-04-06T04:34:01;0.90;99.90
21318;DHT22;10818;50.830;6.524;2023-04-06T04:39:02;1.00;99.90
21318;DHT22;10818;50.830;6.524;2023-04-06T04:44:02;1.00;99.90
21318;DHT22;10818;50.830;6.524;2023-04-06T04:49:03;1.10;99.90
21318;DHT22;10818;50.830;6.524;2023-04-06T04:54:03;1.20;99.90
21318;DHT22;10818;50.830;6.524;2023-04-06T04:59:03;1.60;99.90
21318;DHT22;10818;50.830;6.524;2023-04-06T05:04:04;1.80;99.90
21318;DHT22;10818;50.830;6.524;2023-04-06T05:09:05;2.00;99.90
21318;DHT22;10818;50.830;6.524;2023-04-06T05:14:05;2.30;99.90
21318;DHT22;10818;50.830;6.524;2023-04-06T05:19:06;2.50;99.90
21318;DHT22;10818;50.830;6.524;2023-04-06T05:24:06;2.70;99.90
21318;DHT22;10818;50.830;6.524;2023-04-06T05:29:07;2.90;99.90
21318;DHT22;10818;50.830;6.524;2023-04-06T05:34:07;3.20;99.90
21318;DHT22;10818;50.830;6.524;2023-04-06T05:39:09;3.40;99.90
21318;DHT22;10818;50.830;6.524;2023-04-06T05:44:10;3.70;99.90
21318;DHT22;10818;50.830;6.524;2023-04-06T05:49:10;4.10;99.90
21318;DHT22;10818;50.830;6.524;2023-04-06T05:54:11;4.60;99.90
21318;DHT22;10818;50.830;6.524;2023-04-06T05:59:11;4.90;99.90
21318;DHT22;10818;50.830;6.524;2023-04-06T06:04:12;5.30;99.90
21318;DHT22;10818;50.830;6.524;2023-04-06T06:09:12;5.70;99.90
21318;DHT22;10818;50.830;6.524;2023-04-06T06:14:12;6.10;99.90
21318;DHT22;10818;50.830;6.524;2023-04-06T06:19:13;6.50;99.90
21318;DHT22;10818;50.830;6.524;2023-04-06T06:24:13;7.10;99.90
21318;DHT22;10818;50.830;6.524;2023-04-06T06:29:14;7.20;99.90
21318;DHT22;10818;50.830;6.524;2023-04-06T06:34:15;7.80;99.90
21318;DHT22;10818;50.830;6.524;2023-04-06T06:39:15;8.40;99.90
21318;DHT22;10818;50.830;6.524;2023-04-06T06:44:16;8.90;99.90
21318;DHT22;10818;50.830;6.524;2023-04-06T06:49:16;9.60;99.90
21318;DHT22;10818;50.830;6.524;2023-04-06T06:54:17;9.90;99.90
21318;DHT22;10818;50.830;6.524;2023-04-06T06:59:17;10.30;99.90
21318;DHT22;10818;50.830;6.524;2023-04-06T07:04:18;10.80;99.90
21318;DHT22;10818;50.830;6.524;2023-04-06T07:09:19;11.00;99.90
21318;DHT22;10818;50.830;6.524;2023-04-06T07:14:19;11.50;99.90
21318;DHT22;10818;50.830;6.524;2023-04-06T07:19:20;11.60;99.90
21318;DHT22;10818;50.830;6.524;2023-04-06T07:24:20;12.00;99.90
21318;DHT22;10818;50.830;6.524;2023-04-06T07:29:21;14.50;99.90
21318;DHT22;10818;50.830;6.524;2023-04-06T07:34:21;17.20;92.90
21318;DHT22;10818;50.830;6.524;2023-04-06T07:39:22;17.70;88.20
21318;DHT22;10818;50.830;6.524;2023-04-06T07:44:22;16.70;89.70
21318;DHT22;10818;50.830;6.524;2023-04-06T07:49:23;17.40;86.60
21318;DHT22;10818;50.830;6.524;2023-04-06T07:54:23;16.50;87.00
21318;DHT22;10818;50.830;6.524;2023-04-06T07:59:24;15.70;89.70
21318;DHT22;10818;50.830;6.524;2023-04-06T08:04:25;16.00;90.40
21318;DHT22;10818;50.830;6.524;2023-04-06T08:09:25;17.20;90.00
21318;DHT22;10818;50.830;6.524;2023-04-06T08:14:26;18.40;87.90
21318;DHT22;10818;50.830;6.524;2023-04-06T08:19:26;20.20;83.90
21318;DHT22;10818;50.830;6.524;2023-04-06T08:24:26;19.60;78.60
21318;DHT22;10818;50.830;6.524;2023-04-06T08:29:27;18.60;80.20
21318;DHT22;10818;50.830;6.524;2023-04-06T08:34:27;17.80;82.90
21318;DHT22;10818;50.830;6.524;2023-04-06T08:39:28;17.00;83.10
21318;DHT22;10818;50.830;6.524;2023-04-06T08:44:31;16.50;83.00
21318;DHT22;10818;50.830;6.524;2023-04-06T08:49:32;15.90;85.70
21318;DHT22;10818;50.830;6.524;2023-04-06T08:54:33;15.70;87.70
21318;DHT22;10818;50.830;6.524;2023-04-06T08:59:34;15.60;88.70
21318;DHT22;10818;50.830;6.524;2023-04-06T09:04:35;15.90;87.70
21318;DHT22;10818;50.830;6.524;2023-04-06T09:09:36;15.50;88.50
21318;DHT22;10818;50.830;6.524;2023-04-06T09:14:38;15.70;89.00
21318;DHT22;10818;50.830;6.524;2023-04-06T09:19:45;15.80;89.50
21318;DHT22;10818;50.830;6.524;2023-04-06T09:24:47;15.80;87.20
21318;DHT22;10818;50.830;6.524;2023-04-06T09:29:48;15.90;88.60
21318;DHT22;10818;50.830;6.524;2023-04-06T09:34:48;16.10;86.70
21318;DHT22;10818;50.830;6.524;2023-04-06T09:39:49;16.20;87.70
21318;DHT22;10818;50.830;6.524;2023-04-06T09:44:51;16.50;87.40
21318;DHT22;10818;50.830;6.524;2023-04-06T09:49:55;16.50;85.90
21318;DHT22;10818;50.830;6.524;2023-04-06T09:54:57;16.30;84.20
21318;DHT22;10818;50.830;6.524;2023-04-06T10:00:03;16.80;87.70
21318;DHT22;10818;50.830;6.524;2023-04-06T10:05:09;16.90;84.90
21318;DHT22;10818;50.830;6.524;2023-04-06T10:10:10;16.90;83.90
21318;DHT22;10818;50.830;6.524;2023-04-06T10:15:11;17.10;83.30
21318;DHT22;10818;50.830;6.524;2023-04-06T10:20:16;17.20;83.70
21318;DHT22;10818;50.830;6.524;2023-04-06T10:25:26;17.30;82.40
21318;DHT22;10818;50.830;6.524;2023-04-06T10:30:26;17.20;82.90
21318;DHT22;10818;50.830;6.524;2023-04-06T10:35:37;17.00;83.80
21318;DHT22;10818;50.830;6.524;2023-04-06T10:40:39;17.20;86.50
21318;DHT22;10818;50.830;6.524;2023-04-06T10:45:40;17.10;85.00
21318;DHT22;10818;50.830;6.524;2023-04-06T10:50:41;17.20;85.40
21318;DHT22;10818;50.830;6.524;2023-04-06T10:55:42;17.10;83.60
21318;DHT22;10818;50.830;6.524;2023-04-06T11:00:47;17.20;85.60
21318;DHT22;10818;50.830;6.524;2023-04-06T11:05:48;17.10;86.40
21318;DHT22;10818;50.830;6.524;2023-04-06T11:10:49;17.10;86.50
21318;DHT22;10818;50.830;6.524;2023-04-06T11:15:49;17.30;85.20
21318;DHT22;10818;50.830;6.524;2023-04-06T11:20:50;17.60;88.30
21318;DHT22;10818;50.830;6.524;2023-04-06T11:25:51;17.90;85.10
21318;DHT22;10818;50.830;6.524;2023-04-06T11:30:51;17.90;85.30
21318;DHT22;10818;50.830;6.524;2023-04-06T11:35:52;17.70;84.80
21318;DHT22;10818;50.830;6.524;2023-04-06T11:40:56;17.40;85.20
21318;DHT22;10818;50.830;6.524;2023-04-06T11:46:01;17.20;86.10
21318;DHT22;10818;50.830;6.524;2023-04-06T11:51:02;17.10;88.20
21318;DHT22;10818;50.830;6.524;2023-04-06T11:56:05;16.60;90.60
21318;DHT22;10818;50.830;6.524;2023-04-06T12:01:05;16.10;89.10
21318;DHT22;10818;50.830;6.524;2023-04-06T12:06:06;15.80;88.60
21318;DHT22;10818;50.830;6.524;2023-04-06T12:11:06;15.20;86.50
21318;DHT22;10818;50.830;6.524;2023-04-06T12:16:07;14.90;87.30
21318;DHT22;10818;50.830;6.524;2023-04-06T12:21:07;15.10;89.50
21318;DHT22;10818;50.830;6.524;2023-04-06T12:26:08;14.60;92.40
21318;DHT22;10818;50.830;6.524;2023-04-06T12:31:13;14.30;94.80
21318;DHT22;10818;50.830;6.524;2023-04-06T12:36:15;14.10;96.20
21318;DHT22;10818;50.830;6.524;2023-04-06T12:41:15;13.80;96.60
21318;DHT22;10818;50.830;6.524;2023-04-06T12:46:16;14.20;96.40
21318;DHT22;10818;50.830;6.524;2023-04-06T12:51:17;14.30;95.80
21318;DHT22;10818;50.830;6.524;2023-04-06T12:56:17;13.80;97.50
21318;DHT22;10818;50.830;6.524;2023-04-06T13:01:18;13.30;99.90
21318;DHT22;10818;50.830;6.524;2023-04-06T13:06:18;13.40;99.90
21318;DHT22;10818;50.830;6.524;2023-04-06T13:11:19;13.00;99.90
21318;DHT22;10818;50.830;6.524;2023-04-06T13:16:22;12.80;99.90
21318;DHT22;10818;50.830;6.524;2023-04-06T13:21:22;12.70;99.90
21318;DHT22;10818;50.830;6.524;2023-04-06T13:26:22;12.50;99.90
21318;DHT22;10818;50.830;6.524;2023-04-06T13:31:23;12.40;99.90
21318;DHT22;10818;50.830;6.524;2023-04-06T13:36:23;12.20;99.90
21318;DHT22;10818;50.830;6.524;2023-04-06T13:41:24;12.20;99.90
21318;DHT22;10818;50.830;6.524;2023-04-06T13:46:25;12.50;99.90
21318;DHT22;10818;50.830;6.524;2023-04-06T13:51:27;12.30;99.90
21318;DHT22;10818;50.830;6.524;2023-04-06T13:56:28;12.20;99.90
21318;DHT22;10818;50.830;6.524;2023-04-06T14:01:28;11.80;99.90
21318;DHT22;10818;50.830;6.524;2023-04-06T14:06:28;11.60;99.90
21318;DHT22;10818;50.830;6.524;2023-04-06T14:11:29;11.70;99.90
21318;DHT22;10818;50.830;6.524;2023-04-06T14:16:30;11.70;99.90
21318;DHT22;10818;50.830;6.524;2023-04-06T14:21:31;11.50;99.90
21318;DHT22;10818;50.830;6.524;2023-04-06T14:26:32;11.40;99.90
21318;DHT22;10818;50.830;6.524;2023-04-06T14:31:32;11.30;99.90
21318;DHT22;10818;50.830;6.524;2023-04-06T14:36:33;11.20;99.90
21318;DHT22;10818;50.830;6.524;2023-04-06T14:41:38;11.30;99.90
21318;DHT22;10818;50.830;6.524;2023-04-06T14:46:38;11.20;99.90
21318;DHT22;10818;50.830;6.524;2023-04-06T14:51:39;11.30;99.90
21318;DHT22;10818;50.830;6.524;2023-04-06T14:56:40;11.00;99.90
21318;DHT22;10818;50.830;6.524;2023-04-06T15:01:42;10.90;99.90
21318;DHT22;10818;50.830;6.524;2023-04-06T15:06:42;10.90;99.90
21318;DHT22;10818;50.830;6.524;2023-04-06T15:11:43;10.70;99.90
21318;DHT22;10818;50.830;6.524;2023-04-06T15:16:43;10.60;99.90
21318;DHT22;10818;50.830;6.524;2023-04-06T15:21:43;10.70;99.90
21318;DHT22;10818;50.830;6.524;2023-04-06T15:26:44;10.50;99.90
21318;DHT22;10818;50.830;6.524;2023-04-06T15:31:45;10.10;99.90
21318;DHT22;10818;50.830;6.524;2023-04-06T15:36:46;10.00;99.90
21318;DHT22;10818;50.830;6.524;2023-04-06T15:41:46;9.90;99.90
21318;DHT22;10818;50.830;6.524;2023-04-06T15:46:47;9.90;99.90
21318;DHT22;10818;50.830;6.524;2023-04-06T15:51:48;9.90;99.90
21318;DHT22;10818;50.830;6.524;2023-04-06T15:56:48;9.90;99.90
21318;DHT22;10818;50.830;6.524;2023-04-06T16:01:49;9.90;99.90
21318;DHT22;10818;50.830;6.524;2023-04-06T16:06:50;9.80;99.90
21318;DHT22;10818;50.830;6.524;2023-04-06T16:11:50;9.70;99.90
21318;DHT22;10818;50.830;6.524;2023-04-06T16:16:51;9.70;99.90
21318;DHT22;10818;50.830;6.524;2023-04-06T16:21:52;9.60;99.90
21318;DHT22;10818;50.830;6.524;2023-04-06T16:26:52;9.60;99.90
21318;DHT22;10818;50.830;6.524;2023-04-06T16:31:53;9.70;99.90
21318;DHT22;10818;50.830;6.524;2023-04-06T16:36:54;9.80;99.90
21318;DHT22;10818;50.830;6.524;2023-04-06T16:41:55;9.70;99.90
21318;DHT22;10818;50.830;6.524;2023-04-06T16:46:56;9.70;99.90
21318;DHT22;10818;50.830;6.524;2023-04-06T16:51:57;9.70;99.90
21318;DHT22;10818;50.830;6.524;2023-04-06T16:57:01;9.60;99.90
21318;DHT22;10818;50.830;6.524;2023-04-06T17:02:02;9.60;99.90
21318;DHT22;10818;50.830;6.524;2023-04-06T17:07:02;9.50;99.90
21318;DHT22;10818;50.830;6.524;2023-04-06T17:12:03;9.40;99.90
21318;DHT22;10818;50.830;6.524;2023-04-06T17:17:03;9.30;99.90
21318;DHT22;10818;50.830;6.524;2023-04-06T17:22:04;9.20;99.90
21318;DHT22;10818;50.830;6.524;2023-04-06T17:27:04;9.30;99.90
21318;DHT22;10818;50.830;6.524;2023-04-06T17:32:05;9.30;99.90
21318;DHT22;10818;50.830;6.524;2023-04-06T17:37:05;9.10;99.90
21318;DHT22;10818;50.830;6.524;2023-04-06T17:42:06;9.10;99.90
21318;DHT22;10818;50.830;6.524;2023-04-06T17:47:07;9.00;99.90
21318;DHT22;10818;50.830;6.524;2023-04-06T17:52:08;8.90;99.90
21318;DHT22;10818;50.830;6.524;2023-04-06T17:57:08;8.90;99.90
21318;DHT22;10818;50.830;6.524;2023-04-06T18:02:09;8.70;99.90
21318;DHT22;10818;50.830;6.524;2023-04-06T18:07:09;8.80;99.90
21318;DHT22;10818;50.830;6.524;2023-04-06T18:12:10;8.70;99.90
21318;DHT22;10818;50.830;6.524;2023-04-06T18:17:11;8.80;99.90
21318;DHT22;10818;50.830;6.524;2023-04-06T18:22:11;8.70;99.90
21318;DHT22;10818;50.830;6.524;2023-04-06T18:27:12;8.70;99.90
21318;DHT22;10818;50.830;6.524;2023-04-06T18:32:13;8.50;99.90
21318;DHT22;10818;50.830;6.524;2023-04-06T18:37:15;8.50;99.90
21318;DHT22;10818;50.830;6.524;2023-04-06T18:42:15;8.50;99.90
21318;DHT22;10818;50.830;6.524;2023-04-06T18:47:18;8.50;99.90
21318;DHT22;10818;50.830;6.524;2023-04-06T18:52:18;8.60;99.90
21318;DHT22;10818;50.830;6.524;2023-04-06T18:57:19;8.70;99.90
21318;DHT22;10818;50.830;6.524;2023-04-06T19:02:20;8.50;99.90
21318;DHT22;10818;50.830;6.524;2023-04-06T19:07:20;8.60;99.90
21318;DHT22;10818;50.830;6.524;2023-04-06T19:12:22;8.60;99.90
21318;DHT22;10818;50.830;6.524;2023-04-06T19:17:24;8.40;99.90
21318;DHT22;10818;50.830;6.524;2023-04-06T19:22:24;8.30;99.90
21318;DHT22;10818;50.830;6.524;2023-04-06T19:27:25;8.30;99.90
21318;DHT22;10818;50.830;6.524;2023-04-06T19:32:25;8.10;99.90
21318;DHT22;10818;50.830;6.524;2023-04-06T19:37:26;8.10;99.90
21318;DHT22;10818;50.830;6.524;2023-04-06T19:42:26;8.20;99.90
21318;DHT22;10818;50.830;6.524;2023-04-06T19:47:27;8.30;99.90
21318;DHT22;10818;50.830;6.524;2023-04-06T19:52:27;8.20;99.90
21318;DHT22;10818;50.830;6.524;2023-04-06T19:57:28;8.30;99.90
21318;DHT22;10818;50.830;6.524;2023-04-06T20:02:28;8.30;99.90
21318;DHT22;10818;50.830;6.524;2023-04-06T20:07:29;8.50;99.90
21318;DHT22;10818;50.830;6.524;2023-04-06T20:12:29;8.50;99.90
21318;DHT22;10818;50.830;6.524;2023-04-06T20:17:30;8.60;99.90
21318;DHT22;10818;50.830;6.524;2023-04-06T20:22:30;8.60;99.90
21318;DHT22;10818;50.830;6.524;2023-04-06T20:27:31;8.60;99.90
21318;DHT22;10818;50.830;6.524;2023-04-06T20:32:31;8.60;99.90
21318;DHT22;10818;50.830;6.524;2023-04-06T20:37:33;8.40;99.90
21318;DHT22;10818;50.830;6.524;2023-04-06T20:42:33;8.60;99.90
21318;DHT22;10818;50.830;6.524;2023-04-06T20:47:35;8.60;99.90
21318;DHT22;10818;50.830;6.524;2023-04-06T20:52:35;8.70;99.90
21318;DHT22;10818;50.830;6.524;2023-04-06T20:57:35;8.70;99.90
21318;DHT22;10818;50.830;6.524;2023-04-06T21:02:36;8.80;99.90
21318;DHT22;10818;50.830;6.524;2023-04-06T21:07:36;8.80;99.90
21318;DHT22;10818;50.830;6.524;2023-04-06T21:12:37;8.80;99.90
21318;DHT22;10818;50.830;6.524;2023-04-06T21:17:37;8.80;99.90
21318;DHT22;10818;50.830;6.524;2023-04-06T21:22:38;8.90;99.90
21318;DHT22;10818;50.830;6.524;2023-04-06T21:27:38;9.00;99.90
21318;DHT22;10818;50.830;6.524;2023-04-06T21:32:39;9.10;99.90
21318;DHT22;10818;50.830;6.524;2023-04-06T21:37:39;9.10;99.90
21318;DHT22;10818;50.830;6.524;2023-04-06T21:42:40;9.20;99.90
21318;DHT22;10818;50.830;6.524;2023-04-06T21:47:40;9.20;99.90
21318;DHT22;10818;50.830;6.524;2023-04-06T21:52:40;9.20;99.90
21318;DHT22;10818;50.830;6.524;2023-04-06T21:57:41;9.30;99.90
21318;DHT22;10818;50.830;6.524;2023-04-06T22:02:43;9.40;99.90
21318;DHT22;10818;50.830;6.524;2023-04-06T22:07:44;9.40;99.90
21318;DHT22;10818;50.830;6.524;2023-04-06T22:12:45;9.40;99.90
21318;DHT22;10818;50.830;6.524;2023-04-06T22:17:48;9.50;99.90
21318;DHT22;10818;50.830;6.524;2023-04-06T22:22:48;9.50;99.90
21318;DHT22;10818;50.830;6.524;2023-04-06T22:27:49;9.50;99.90
21318;DHT22;10818;50.830;6.524;2023-04-06T22:32:49;9.60;99.90
21318;DHT22;10818;50.830;6.524;2023-04-06T22:37:50;9.60;99.90
21318;DHT22;10818;50.830;6.524;2023-04-06T22:42:50;9.60;99.90
21318;DHT22;10818;50.830;6.524;2023-04-06T22:47:50;9.60;99.90
21318;DHT22;10818;50.830;6.524;2023-04-06T22:52:51;9.70;99.90
21318;DHT22;10818;50.830;6.524;2023-04-06T22:57:52;9.70;99.90
21318;DHT22;10818;50.830;6.524;2023-04-06T23:02:52;9.80;99.90
21318;DHT22;10818;50.830;6.524;2023-04-06T23:07:53;9.80;99.90
21318;DHT22;10818;50.830;6.524;2023-04-06T23:12:53;9.80;99.90
21318;DHT22;10818;50.830;6.524;2023-04-06T23:17:54;9.80;99.90
21318;DHT22;10818;50.830;6.524;2023-04-06T23:22:54;9.80;99.90
21318;DHT22;10818;50.830;6.524;2023-04-06T23:27:55;9.80;99.90
21318;DHT22;10818;50.830;6.524;2023-04-06T23:32:55;9.90;99.90
21318;DHT22;10818;50.830;6.524;2023-04-06T23:37:56;9.90;99.90
21318;DHT22;10818;50.830;6.524;2023-04-06T23:42:56;9.90;99.90
21318;DHT22;10818;50.830;6.524;2023-04-06T23:47:57;10.00;99.90
21318;DHT22;10818;50.830;6.524;2023-04-06T23:52:59;9.90;99.90
21318;DHT22;10818;50.830;6.524;2023-04-06T23:57:59;9.90;99.90
